sensor_id;sensor_type;location;lat;lon;timestamp;P1;durP1;ratioP1;P2;durP2;ratioP2
74904;SDS011;63465;50.862;6.220;2023-05-07T00:00:52;11.00;;;6.50;;
74904;SDS011;63465;50.862;6.220;2023-05-07T00:03:18;9.60;;;5.60;;
74904;SDS011;63465;50.862;6.220;2023-05-07T00:05:44;7.13;;;5.70;;
74904;SDS011;63465;50.862;6.220;2023-05-07T00:08:09;6.53;;;5.57;;
74904;SDS011;63465;50.862;6.220;2023-05-07T00:10:35;7.50;;;5.27;;
74904;SDS011;63465;50.862;6.220;2023-05-07T00:13:00;10.97;;;6.00;;
74904;SDS011;63465;50.862;6.220;2023-05-07T00:15:26;7.20;;;5.50;;
74904;SDS011;63465;50.862;6.220;2023-05-07T00:17:51;8.53;;;6.20;;
74904;SDS011;63465;50.862;6.220;2023-05-07T00:20:16;8.00;;;5.47;;
74904;SDS011;63465;50.862;6.220;2023-05-07T00:22:41;10.93;;;5.73;;
74904;SDS011;63465;50.862;6.220;2023-05-07T00:25:07;9.40;;;5.97;;
74904;SDS011;63465;50.862;6.220;2023-05-07T00:27:32;10.00;;;5.87;;
74904;SDS011;63465;50.862;6.220;2023-05-07T00:29:58;13.03;;;5.50;;
74904;SDS011;63465;50.862;6.220;2023-05-07T00:32:23;11.93;;;5.43;;
74904;SDS011;63465;50.862;6.220;2023-05-07T00:34:48;6.20;;;5.33;;
74904;SDS011;63465;50.862;6.220;2023-05-07T00:37:14;8.53;;;5.50;;
74904;SDS011;63465;50.862;6.220;2023-05-07T00:39:39;6.00;;;5.40;;
74904;SDS011;63465;50.862;6.220;2023-05-07T00:42:06;15.33;;;5.00;;
74904;SDS011;63465;50.862;6.220;2023-05-07T00:44:31;9.60;;;4.83;;
74904;SDS011;63465;50.862;6.220;2023-05-07T00:46:57;4.80;;;4.40;;
74904;SDS011;63465;50.862;6.220;2023-05-07T00:49:22;5.57;;;5.07;;
74904;SDS011;63465;50.862;6.220;2023-05-07T00:51:58;6.10;;;5.40;;
74904;SDS011;63465;50.862;6.220;2023-05-07T00:54:25;6.67;;;5.03;;
74904;SDS011;63465;50.862;6.220;2023-05-07T00:56:50;7.00;;;4.83;;
74904;SDS011;63465;50.862;6.220;2023-05-07T00:59:16;5.03;;;4.50;;
74904;SDS011;63465;50.862;6.220;2023-05-07T01:01:41;5.00;;;4.40;;
74904;SDS011;63465;50.862;6.220;2023-05-07T01:04:07;8.03;;;5.23;;
74904;SDS011;63465;50.862;6.220;2023-05-07T01:06:32;5.57;;;5.07;;
74904;SDS011;63465;50.862;6.220;2023-05-07T01:08:58;6.10;;;4.83;;
74904;SDS011;63465;50.862;6.220;2023-05-07T01:11:24;5.63;;;5.13;;
74904;SDS011;63465;50.862;6.220;2023-05-07T01:13:50;8.17;;;4.90;;
74904;SDS011;63465;50.862;6.220;2023-05-07T01:16:16;5.13;;;4.60;;
74904;SDS011;63465;50.862;6.220;2023-05-07T01:18:42;6.27;;;4.80;;
74904;SDS011;63465;50.862;6.220;2023-05-07T01:21:07;5.97;;;4.90;;
74904;SDS011;63465;50.862;6.220;2023-05-07T01:23:36;9.93;;;5.10;;
74904;SDS011;63465;50.862;6.220;2023-05-07T01:26:03;9.97;;;5.27;;
74904;SDS011;63465;50.862;6.220;2023-05-07T01:28:28;5.60;;;4.97;;
74904;SDS011;63465;50.862;6.220;2023-05-07T01:30:54;4.87;;;4.47;;
74904;SDS011;63465;50.862;6.220;2023-05-07T01:33:25;5.43;;;4.90;;
74904;SDS011;63465;50.862;6.220;2023-05-07T01:35:53;6.10;;;5.20;;
74904;SDS011;63465;50.862;6.220;2023-05-07T01:38:19;7.53;;;6.10;;
74904;SDS011;63465;50.862;6.220;2023-05-07T01:40:47;6.07;;;5.47;;
74904;SDS011;63465;50.862;6.220;2023-05-07T01:43:12;5.47;;;4.97;;
74904;SDS011;63465;50.862;6.220;2023-05-07T01:45:38;7.67;;;4.73;;
74904;SDS011;63465;50.862;6.220;2023-05-07T01:48:04;9.40;;;5.60;;
74904;SDS011;63465;50.862;6.220;2023-05-07T01:50:30;6.03;;;5.40;;
74904;SDS011;63465;50.862;6.220;2023-05-07T01:52:56;5.97;;;5.30;;
74904;SDS011;63465;50.862;6.220;2023-05-07T01:55:22;10.93;;;5.37;;
74904;SDS011;63465;50.862;6.220;2023-05-07T01:57:47;9.30;;;5.43;;
74904;SDS011;63465;50.862;6.220;2023-05-07T02:00:12;13.47;;;5.90;;
74904;SDS011;63465;50.862;6.220;2023-05-07T02:02:38;7.47;;;5.33;;
74904;SDS011;63465;50.862;6.220;2023-05-07T02:05:03;6.37;;;5.50;;
74904;SDS011;63465;50.862;6.220;2023-05-07T02:07:29;10.40;;;5.97;;
74904;SDS011;63465;50.862;6.220;2023-05-07T02:09:54;6.40;;;5.57;;
74904;SDS011;63465;50.862;6.220;2023-05-07T02:12:20;8.00;;;6.03;;
74904;SDS011;63465;50.862;6.220;2023-05-07T02:14:46;9.30;;;6.30;;
74904;SDS011;63465;50.862;6.220;2023-05-07T02:17:11;6.70;;;6.10;;
74904;SDS011;63465;50.862;6.220;2023-05-07T02:19:36;8.23;;;6.67;;
74904;SDS011;63465;50.862;6.220;2023-05-07T02:22:02;8.30;;;6.00;;
74904;SDS011;63465;50.862;6.220;2023-05-07T02:24:27;10.00;;;6.37;;
74904;SDS011;63465;50.862;6.220;2023-05-07T02:26:52;12.47;;;6.43;;
74904;SDS011;63465;50.862;6.220;2023-05-07T02:29:17;11.93;;;5.93;;
74904;SDS011;63465;50.862;6.220;2023-05-07T02:31:43;11.60;;;6.10;;
74904;SDS011;63465;50.862;6.220;2023-05-07T02:34:08;6.83;;;6.13;;
74904;SDS011;63465;50.862;6.220;2023-05-07T02:36:33;8.13;;;6.30;;
74904;SDS011;63465;50.862;6.220;2023-05-07T02:38:59;8.10;;;5.80;;
74904;SDS011;63465;50.862;6.220;2023-05-07T02:41:25;7.33;;;6.20;;
74904;SDS011;63465;50.862;6.220;2023-05-07T02:43:50;7.83;;;6.00;;
74904;SDS011;63465;50.862;6.220;2023-05-07T02:46:16;6.97;;;5.70;;
74904;SDS011;63465;50.862;6.220;2023-05-07T02:48:41;10.77;;;6.20;;
74904;SDS011;63465;50.862;6.220;2023-05-07T02:51:06;6.40;;;5.80;;
74904;SDS011;63465;50.862;6.220;2023-05-07T02:53:32;8.23;;;5.50;;
74904;SDS011;63465;50.862;6.220;2023-05-07T02:55:58;9.30;;;5.70;;
74904;SDS011;63465;50.862;6.220;2023-05-07T02:58:25;9.10;;;5.80;;
74904;SDS011;63465;50.862;6.220;2023-05-07T03:00:50;11.77;;;6.00;;
74904;SDS011;63465;50.862;6.220;2023-05-07T03:03:16;6.77;;;5.90;;
74904;SDS011;63465;50.862;6.220;2023-05-07T03:05:42;6.97;;;6.30;;
74904;SDS011;63465;50.862;6.220;2023-05-07T03:08:08;10.50;;;6.70;;
74904;SDS011;63465;50.862;6.220;2023-05-07T03:10:34;7.27;;;5.73;;
74904;SDS011;63465;50.862;6.220;2023-05-07T03:13:00;8.47;;;6.30;;
74904;SDS011;63465;50.862;6.220;2023-05-07T03:15:26;10.00;;;6.30;;
74904;SDS011;63465;50.862;6.220;2023-05-07T03:17:51;10.80;;;6.23;;
74904;SDS011;63465;50.862;6.220;2023-05-07T03:20:16;14.20;;;6.30;;
74904;SDS011;63465;50.862;6.220;2023-05-07T03:22:42;15.70;;;6.40;;
74904;SDS011;63465;50.862;6.220;2023-05-07T03:25:08;15.57;;;7.20;;
74904;SDS011;63465;50.862;6.220;2023-05-07T03:27:33;12.97;;;7.57;;
74904;SDS011;63465;50.862;6.220;2023-05-07T03:29:59;8.90;;;6.50;;
74904;SDS011;63465;50.862;6.220;2023-05-07T03:32:25;12.57;;;7.03;;
74904;SDS011;63465;50.862;6.220;2023-05-07T03:34:50;11.90;;;7.17;;
74904;SDS011;63465;50.862;6.220;2023-05-07T03:37:15;10.50;;;6.97;;
74904;SDS011;63465;50.862;6.220;2023-05-07T03:39:41;11.83;;;7.20;;
74904;SDS011;63465;50.862;6.220;2023-05-07T03:42:06;8.93;;;6.63;;
74904;SDS011;63465;50.862;6.220;2023-05-07T03:44:31;8.97;;;7.23;;
74904;SDS011;63465;50.862;6.220;2023-05-07T03:46:57;20.03;;;7.60;;
74904;SDS011;63465;50.862;6.220;2023-05-07T03:49:22;11.80;;;7.43;;
74904;SDS011;63465;50.862;6.220;2023-05-07T03:51:47;13.77;;;7.87;;
74904;SDS011;63465;50.862;6.220;2023-05-07T03:54:12;11.97;;;7.93;;
74904;SDS011;63465;50.862;6.220;2023-05-07T03:56:38;8.63;;;6.87;;
74904;SDS011;63465;50.862;6.220;2023-05-07T03:59:03;11.80;;;7.67;;
74904;SDS011;63465;50.862;6.220;2023-05-07T04:01:28;11.70;;;7.43;;
74904;SDS011;63465;50.862;6.220;2023-05-07T04:03:54;9.77;;;7.70;;
74904;SDS011;63465;50.862;6.220;2023-05-07T04:06:20;9.60;;;7.00;;
74904;SDS011;63465;50.862;6.220;2023-05-07T04:08:45;9.70;;;7.17;;
74904;SDS011;63465;50.862;6.220;2023-05-07T04:11:11;12.70;;;7.20;;
74904;SDS011;63465;50.862;6.220;2023-05-07T04:13:36;8.90;;;6.90;;
74904;SDS011;63465;50.862;6.220;2023-05-07T04:16:02;10.47;;;6.70;;
74904;SDS011;63465;50.862;6.220;2023-05-07T04:18:28;9.03;;;6.17;;
74904;SDS011;63465;50.862;6.220;2023-05-07T04:20:54;13.30;;;7.27;;
74904;SDS011;63465;50.862;6.220;2023-05-07T04:23:19;10.67;;;6.40;;
74904;SDS011;63465;50.862;6.220;2023-05-07T04:25:45;16.57;;;6.80;;
74904;SDS011;63465;50.862;6.220;2023-05-07T04:28:10;7.20;;;6.30;;
74904;SDS011;63465;50.862;6.220;2023-05-07T04:30:36;8.10;;;6.40;;
74904;SDS011;63465;50.862;6.220;2023-05-07T04:33:02;12.17;;;6.90;;
74904;SDS011;63465;50.862;6.220;2023-05-07T04:35:27;7.87;;;5.60;;
74904;SDS011;63465;50.862;6.220;2023-05-07T04:37:52;10.77;;;6.50;;
74904;SDS011;63465;50.862;6.220;2023-05-07T04:40:18;6.83;;;6.13;;
74904;SDS011;63465;50.862;6.220;2023-05-07T04:42:43;8.13;;;6.57;;
74904;SDS011;63465;50.862;6.220;2023-05-07T04:45:09;7.53;;;6.40;;
74904;SDS011;63465;50.862;6.220;2023-05-07T04:47:35;6.90;;;6.10;;
74904;SDS011;63465;50.862;6.220;2023-05-07T04:50:00;13.43;;;6.83;;
74904;SDS011;63465;50.862;6.220;2023-05-07T04:52:26;8.33;;;6.50;;
74904;SDS011;63465;50.862;6.220;2023-05-07T04:54:51;10.93;;;5.43;;
74904;SDS011;63465;50.862;6.220;2023-05-07T04:57:16;12.30;;;5.73;;
74904;SDS011;63465;50.862;6.220;2023-05-07T04:59:42;7.43;;;6.03;;
74904;SDS011;63465;50.862;6.220;2023-05-07T05:02:09;7.93;;;6.30;;
74904;SDS011;63465;50.862;6.220;2023-05-07T05:04:35;8.63;;;7.10;;
74904;SDS011;63465;50.862;6.220;2023-05-07T05:07:01;14.20;;;6.80;;
74904;SDS011;63465;50.862;6.220;2023-05-07T05:09:28;6.97;;;6.27;;
74904;SDS011;63465;50.862;6.220;2023-05-07T05:11:53;7.27;;;6.50;;
74904;SDS011;63465;50.862;6.220;2023-05-07T05:14:19;8.83;;;5.70;;
74904;SDS011;63465;50.862;6.220;2023-05-07T05:16:44;6.90;;;5.87;;
74904;SDS011;63465;50.862;6.220;2023-05-07T05:19:09;7.80;;;5.53;;
74904;SDS011;63465;50.862;6.220;2023-05-07T05:21:35;7.97;;;6.07;;
74904;SDS011;63465;50.862;6.220;2023-05-07T05:24:00;7.23;;;6.20;;
74904;SDS011;63465;50.862;6.220;2023-05-07T05:26:25;6.70;;;6.07;;
74904;SDS011;63465;50.862;6.220;2023-05-07T05:28:51;9.60;;;5.30;;
74904;SDS011;63465;50.862;6.220;2023-05-07T05:31:16;5.77;;;5.20;;
74904;SDS011;63465;50.862;6.220;2023-05-07T05:33:41;6.13;;;5.57;;
74904;SDS011;63465;50.862;6.220;2023-05-07T05:36:09;10.63;;;5.03;;
74904;SDS011;63465;50.862;6.220;2023-05-07T05:38:35;5.83;;;5.33;;
74904;SDS011;63465;50.862;6.220;2023-05-07T05:41:00;5.23;;;4.73;;
74904;SDS011;63465;50.862;6.220;2023-05-07T05:43:25;7.27;;;5.53;;
74904;SDS011;63465;50.862;6.220;2023-05-07T05:45:51;6.23;;;5.13;;
74904;SDS011;63465;50.862;6.220;2023-05-07T05:48:16;6.20;;;4.83;;
74904;SDS011;63465;50.862;6.220;2023-05-07T05:50:41;5.20;;;4.80;;
74904;SDS011;63465;50.862;6.220;2023-05-07T05:53:07;5.33;;;4.83;;
74904;SDS011;63465;50.862;6.220;2023-05-07T05:55:33;5.13;;;4.63;;
74904;SDS011;63465;50.862;6.220;2023-05-07T05:57:59;4.60;;;4.30;;
74904;SDS011;63465;50.862;6.220;2023-05-07T06:00:25;6.07;;;4.80;;
74904;SDS011;63465;50.862;6.220;2023-05-07T06:02:51;4.60;;;4.20;;
74904;SDS011;63465;50.862;6.220;2023-05-07T06:05:16;6.83;;;4.77;;
74904;SDS011;63465;50.862;6.220;2023-05-07T06:07:42;6.77;;;3.90;;
74904;SDS011;63465;50.862;6.220;2023-05-07T06:10:07;4.80;;;4.30;;
74904;SDS011;63465;50.862;6.220;2023-05-07T06:12:33;6.00;;;4.40;;
74904;SDS011;63465;50.862;6.220;2023-05-07T06:14:58;11.53;;;4.43;;
74904;SDS011;63465;50.862;6.220;2023-05-07T06:17:23;4.83;;;4.20;;
74904;SDS011;63465;50.862;6.220;2023-05-07T06:19:49;7.60;;;4.20;;
74904;SDS011;63465;50.862;6.220;2023-05-07T06:22:14;4.60;;;4.20;;
74904;SDS011;63465;50.862;6.220;2023-05-07T06:24:39;6.23;;;4.20;;
74904;SDS011;63465;50.862;6.220;2023-05-07T06:27:05;15.40;;;8.07;;
74904;SDS011;63465;50.862;6.220;2023-05-07T06:29:30;14.67;;;9.33;;
74904;SDS011;63465;50.862;6.220;2023-05-07T06:32:05;7.97;;;6.13;;
74904;SDS011;63465;50.862;6.220;2023-05-07T06:34:32;6.60;;;4.57;;
74904;SDS011;63465;50.862;6.220;2023-05-07T06:36:57;5.30;;;4.80;;
74904;SDS011;63465;50.862;6.220;2023-05-07T06:39:23;5.73;;;4.37;;
74904;SDS011;63465;50.862;6.220;2023-05-07T06:41:48;4.90;;;4.43;;
74904;SDS011;63465;50.862;6.220;2023-05-07T06:44:13;6.40;;;4.70;;
74904;SDS011;63465;50.862;6.220;2023-05-07T06:46:38;6.57;;;4.40;;
74904;SDS011;63465;50.862;6.220;2023-05-07T06:49:05;9.50;;;4.50;;
74904;SDS011;63465;50.862;6.220;2023-05-07T06:51:30;4.43;;;4.07;;
74904;SDS011;63465;50.862;6.220;2023-05-07T06:53:55;4.73;;;4.30;;
74904;SDS011;63465;50.862;6.220;2023-05-07T06:56:21;4.67;;;4.17;;
74904;SDS011;63465;50.862;6.220;2023-05-07T06:58:47;6.67;;;4.40;;
74904;SDS011;63465;50.862;6.220;2023-05-07T07:01:13;5.60;;;4.33;;
74904;SDS011;63465;50.862;6.220;2023-05-07T07:03:38;4.27;;;3.87;;
74904;SDS011;63465;50.862;6.220;2023-05-07T07:06:03;4.10;;;3.80;;
74904;SDS011;63465;50.862;6.220;2023-05-07T07:08:29;4.13;;;3.70;;
74904;SDS011;63465;50.862;6.220;2023-05-07T07:10:54;6.50;;;4.10;;
74904;SDS011;63465;50.862;6.220;2023-05-07T07:13:19;10.70;;;4.47;;
74904;SDS011;63465;50.862;6.220;2023-05-07T07:15:45;12.37;;;4.20;;
74904;SDS011;63465;50.862;6.220;2023-05-07T07:18:11;6.67;;;4.07;;
74904;SDS011;63465;50.862;6.220;2023-05-07T07:20:36;6.03;;;5.37;;
74904;SDS011;63465;50.862;6.220;2023-05-07T07:23:01;4.27;;;3.73;;
74904;SDS011;63465;50.862;6.220;2023-05-07T07:25:26;4.70;;;4.30;;
74904;SDS011;63465;50.862;6.220;2023-05-07T07:27:52;4.63;;;3.83;;
74904;SDS011;63465;50.862;6.220;2023-05-07T07:30:17;5.43;;;4.17;;
74904;SDS011;63465;50.862;6.220;2023-05-07T07:32:43;11.90;;;5.20;;
74904;SDS011;63465;50.862;6.220;2023-05-07T07:35:08;6.17;;;4.50;;
74904;SDS011;63465;50.862;6.220;2023-05-07T07:37:34;7.57;;;4.87;;
74904;SDS011;63465;50.862;6.220;2023-05-07T07:39:59;12.33;;;5.07;;
74904;SDS011;63465;50.862;6.220;2023-05-07T07:42:25;6.60;;;4.70;;
74904;SDS011;63465;50.862;6.220;2023-05-07T07:44:50;6.37;;;5.10;;
74904;SDS011;63465;50.862;6.220;2023-05-07T07:47:15;6.70;;;5.50;;
74904;SDS011;63465;50.862;6.220;2023-05-07T07:49:41;6.23;;;5.30;;
74904;SDS011;63465;50.862;6.220;2023-05-07T07:52:06;7.30;;;5.20;;
74904;SDS011;63465;50.862;6.220;2023-05-07T07:54:31;6.20;;;5.60;;
74904;SDS011;63465;50.862;6.220;2023-05-07T07:56:57;5.67;;;5.00;;
74904;SDS011;63465;50.862;6.220;2023-05-07T07:59:22;11.23;;;4.70;;
74904;SDS011;63465;50.862;6.220;2023-05-07T08:01:48;5.40;;;4.40;;
74904;SDS011;63465;50.862;6.220;2023-05-07T08:04:15;5.87;;;4.30;;
74904;SDS011;63465;50.862;6.220;2023-05-07T08:06:40;14.70;;;5.10;;
74904;SDS011;63465;50.862;6.220;2023-05-07T08:09:06;5.27;;;4.27;;
74904;SDS011;63465;50.862;6.220;2023-05-07T08:11:31;4.10;;;3.80;;
74904;SDS011;63465;50.862;6.220;2023-05-07T08:13:56;5.60;;;3.50;;
74904;SDS011;63465;50.862;6.220;2023-05-07T08:16:22;4.67;;;4.27;;
74904;SDS011;63465;50.862;6.220;2023-05-07T08:18:47;5.13;;;4.40;;
74904;SDS011;63465;50.862;6.220;2023-05-07T08:21:12;4.60;;;4.30;;
74904;SDS011;63465;50.862;6.220;2023-05-07T08:23:38;7.43;;;4.53;;
74904;SDS011;63465;50.862;6.220;2023-05-07T08:26:03;3.90;;;3.60;;
74904;SDS011;63465;50.862;6.220;2023-05-07T08:28:28;4.70;;;4.30;;
74904;SDS011;63465;50.862;6.220;2023-05-07T08:30:54;3.70;;;3.40;;
74904;SDS011;63465;50.862;6.220;2023-05-07T08:33:21;8.50;;;4.13;;
74904;SDS011;63465;50.862;6.220;2023-05-07T08:35:46;3.80;;;3.50;;
74904;SDS011;63465;50.862;6.220;2023-05-07T08:38:12;5.17;;;4.20;;
74904;SDS011;63465;50.862;6.220;2023-05-07T08:40:38;7.80;;;3.90;;
74904;SDS011;63465;50.862;6.220;2023-05-07T08:43:07;10.47;;;3.90;;
74904;SDS011;63465;50.862;6.220;2023-05-07T08:45:33;10.80;;;4.07;;
74904;SDS011;63465;50.862;6.220;2023-05-07T08:47:59;6.10;;;3.93;;
74904;SDS011;63465;50.862;6.220;2023-05-07T08:50:27;8.33;;;4.13;;
74904;SDS011;63465;50.862;6.220;2023-05-07T08:52:53;6.93;;;3.53;;
74904;SDS011;63465;50.862;6.220;2023-05-07T08:55:18;3.83;;;3.40;;
74904;SDS011;63465;50.862;6.220;2023-05-07T08:57:45;6.70;;;3.77;;
74904;SDS011;63465;50.862;6.220;2023-05-07T09:00:12;10.33;;;3.33;;
74904;SDS011;63465;50.862;6.220;2023-05-07T09:02:37;3.17;;;2.87;;
74904;SDS011;63465;50.862;6.220;2023-05-07T09:05:03;4.07;;;2.20;;
74904;SDS011;63465;50.862;6.220;2023-05-07T09:07:28;3.40;;;2.77;;
74904;SDS011;63465;50.862;6.220;2023-05-07T09:09:55;4.30;;;3.30;;
74904;SDS011;63465;50.862;6.220;2023-05-07T09:12:21;2.93;;;2.73;;
74904;SDS011;63465;50.862;6.220;2023-05-07T09:14:47;3.93;;;2.73;;
74904;SDS011;63465;50.862;6.220;2023-05-07T09:17:13;3.80;;;2.80;;
74904;SDS011;63465;50.862;6.220;2023-05-07T09:19:40;5.47;;;2.43;;
74904;SDS011;63465;50.862;6.220;2023-05-07T09:22:05;2.37;;;2.17;;
74904;SDS011;63465;50.862;6.220;2023-05-07T09:24:34;2.33;;;2.20;;
74904;SDS011;63465;50.862;6.220;2023-05-07T09:27:01;4.80;;;2.53;;
74904;SDS011;63465;50.862;6.220;2023-05-07T09:29:27;2.40;;;2.20;;
74904;SDS011;63465;50.862;6.220;2023-05-07T09:32:00;3.80;;;2.40;;
74904;SDS011;63465;50.862;6.220;2023-05-07T09:34:28;2.70;;;2.20;;
74904;SDS011;63465;50.862;6.220;2023-05-07T09:36:54;4.73;;;2.00;;
74904;SDS011;63465;50.862;6.220;2023-05-07T09:39:19;7.37;;;2.80;;
74904;SDS011;63465;50.862;6.220;2023-05-07T09:41:45;5.37;;;2.60;;
74904;SDS011;63465;50.862;6.220;2023-05-07T09:44:12;2.90;;;2.70;;
74904;SDS011;63465;50.862;6.220;2023-05-07T09:46:39;15.53;;;2.93;;
74904;SDS011;63465;50.862;6.220;2023-05-07T09:49:07;6.27;;;2.93;;
74904;SDS011;63465;50.862;6.220;2023-05-07T09:51:49;5.80;;;2.80;;
74904;SDS011;63465;50.862;6.220;2023-05-07T09:54:15;7.03;;;2.90;;
74904;SDS011;63465;50.862;6.220;2023-05-07T09:56:44;2.20;;;2.10;;
74904;SDS011;63465;50.862;6.220;2023-05-07T09:59:12;2.33;;;2.20;;
74904;SDS011;63465;50.862;6.220;2023-05-07T10:01:40;5.87;;;2.33;;
74904;SDS011;63465;50.862;6.220;2023-05-07T10:04:07;3.30;;;2.63;;
74904;SDS011;63465;50.862;6.220;2023-05-07T10:06:35;2.77;;;2.57;;
74904;SDS011;63465;50.862;6.220;2023-05-07T10:09:02;6.53;;;2.37;;
74904;SDS011;63465;50.862;6.220;2023-05-07T10:11:28;4.40;;;2.87;;
74904;SDS011;63465;50.862;6.220;2023-05-07T10:13:53;3.30;;;2.97;;
74904;SDS011;63465;50.862;6.220;2023-05-07T10:16:19;4.43;;;2.67;;
74904;SDS011;63465;50.862;6.220;2023-05-07T10:18:46;4.27;;;2.70;;
74904;SDS011;63465;50.862;6.220;2023-05-07T10:21:18;4.77;;;3.00;;
74904;SDS011;63465;50.862;6.220;2023-05-07T10:23:47;2.50;;;2.30;;
74904;SDS011;63465;50.862;6.220;2023-05-07T10:26:18;2.23;;;2.13;;
74904;SDS011;63465;50.862;6.220;2023-05-07T10:28:48;2.80;;;2.53;;
74904;SDS011;63465;50.862;6.220;2023-05-07T10:34:12;4.53;;;2.70;;
74904;SDS011;63465;50.862;6.220;2023-05-07T10:36:43;4.77;;;2.70;;
74904;SDS011;63465;50.862;6.220;2023-05-07T10:39:09;7.03;;;2.47;;
74904;SDS011;63465;50.862;6.220;2023-05-07T10:41:35;4.57;;;2.47;;
74904;SDS011;63465;50.862;6.220;2023-05-07T10:44:01;2.90;;;2.70;;
74904;SDS011;63465;50.862;6.220;2023-05-07T10:46:27;3.80;;;2.50;;
74904;SDS011;63465;50.862;6.220;2023-05-07T10:51:28;7.60;;;2.90;;
74904;SDS011;63465;50.862;6.220;2023-05-07T10:54:40;6.70;;;2.80;;
74904;SDS011;63465;50.862;6.220;2023-05-07T10:56:44;6.33;;;3.47;;
74904;SDS011;63465;50.862;6.220;2023-05-07T11:04:28;8.87;;;3.97;;
74904;SDS011;63465;50.862;6.220;2023-05-07T11:15:04;3.27;;;2.97;;
74904;SDS011;63465;50.862;6.220;2023-05-07T11:17:34;4.13;;;3.30;;
74904;SDS011;63465;50.862;6.220;2023-05-07T11:20:00;3.97;;;3.30;;
74904;SDS011;63465;50.862;6.220;2023-05-07T11:24:55;3.80;;;2.80;;
74904;SDS011;63465;50.862;6.220;2023-05-07T11:27:23;3.13;;;2.70;;
74904;SDS011;63465;50.862;6.220;2023-05-07T11:29:49;3.03;;;2.70;;
74904;SDS011;63465;50.862;6.220;2023-05-07T11:32:15;2.13;;;1.93;;
74904;SDS011;63465;50.862;6.220;2023-05-07T11:34:47;6.47;;;1.80;;
74904;SDS011;63465;50.862;6.220;2023-05-07T11:37:19;2.50;;;1.97;;
74904;SDS011;63465;50.862;6.220;2023-05-07T11:39:46;2.33;;;1.97;;
74904;SDS011;63465;50.862;6.220;2023-05-07T11:44:56;3.87;;;2.10;;
74904;SDS011;63465;50.862;6.220;2023-05-07T11:47:21;2.03;;;1.83;;
74904;SDS011;63465;50.862;6.220;2023-05-07T11:49:50;2.43;;;2.20;;
74904;SDS011;63465;50.862;6.220;2023-05-07T11:52:17;4.47;;;2.00;;
74904;SDS011;63465;50.862;6.220;2023-05-07T11:54:53;3.43;;;2.07;;
74904;SDS011;63465;50.862;6.220;2023-05-07T11:57:22;3.40;;;2.53;;
74904;SDS011;63465;50.862;6.220;2023-05-07T11:59:52;2.57;;;2.37;;
74904;SDS011;63465;50.862;6.220;2023-05-07T12:02:21;3.67;;;2.33;;
74904;SDS011;63465;50.862;6.220;2023-05-07T12:04:46;6.77;;;2.20;;
74904;SDS011;63465;50.862;6.220;2023-05-07T12:07:12;8.30;;;2.43;;
74904;SDS011;63465;50.862;6.220;2023-05-07T12:09:41;3.30;;;2.37;;
74904;SDS011;63465;50.862;6.220;2023-05-07T12:12:06;2.20;;;2.10;;
74904;SDS011;63465;50.862;6.220;2023-05-07T12:14:32;3.90;;;2.50;;
74904;SDS011;63465;50.862;6.220;2023-05-07T12:16:58;3.47;;;3.17;;
74904;SDS011;63465;50.862;6.220;2023-05-07T12:19:27;3.70;;;2.97;;
74904;SDS011;63465;50.862;6.220;2023-05-07T12:21:54;3.43;;;3.13;;
74904;SDS011;63465;50.862;6.220;2023-05-07T12:24:19;5.50;;;3.10;;
74904;SDS011;63465;50.862;6.220;2023-05-07T12:26:46;8.00;;;2.80;;
74904;SDS011;63465;50.862;6.220;2023-05-07T12:29:11;3.70;;;2.47;;
74904;SDS011;63465;50.862;6.220;2023-05-07T12:31:39;2.67;;;2.47;;
74904;SDS011;63465;50.862;6.220;2023-05-07T12:34:05;2.80;;;2.40;;
74904;SDS011;63465;50.862;6.220;2023-05-07T12:36:37;3.33;;;3.03;;
74904;SDS011;63465;50.862;6.220;2023-05-07T12:39:04;3.47;;;3.17;;
74904;SDS011;63465;50.862;6.220;2023-05-07T12:41:30;3.07;;;2.87;;
74904;SDS011;63465;50.862;6.220;2023-05-07T12:44:16;2.83;;;2.63;;
74904;SDS011;63465;50.862;6.220;2023-05-07T12:46:41;3.07;;;2.77;;
74904;SDS011;63465;50.862;6.220;2023-05-07T12:49:07;3.50;;;3.20;;
74904;SDS011;63465;50.862;6.220;2023-05-07T12:51:34;4.23;;;3.40;;
74904;SDS011;63465;50.862;6.220;2023-05-07T12:54:00;3.87;;;3.57;;
74904;SDS011;63465;50.862;6.220;2023-05-07T12:56:25;5.80;;;3.50;;
74904;SDS011;63465;50.862;6.220;2023-05-07T12:58:50;4.80;;;4.00;;
74904;SDS011;63465;50.862;6.220;2023-05-07T13:01:16;6.30;;;5.03;;
74904;SDS011;63465;50.862;6.220;2023-05-07T13:03:47;9.30;;;5.03;;
74904;SDS011;63465;50.862;6.220;2023-05-07T13:06:13;7.20;;;6.07;;
74904;SDS011;63465;50.862;6.220;2023-05-07T13:08:40;7.03;;;5.57;;
74904;SDS011;63465;50.862;6.220;2023-05-07T13:11:08;7.60;;;5.27;;
74904;SDS011;63465;50.862;6.220;2023-05-07T13:13:35;6.20;;;4.80;;
74904;SDS011;63465;50.862;6.220;2023-05-07T13:16:02;5.83;;;4.93;;
74904;SDS011;63465;50.862;6.220;2023-05-07T13:18:31;8.60;;;4.70;;
74904;SDS011;63465;50.862;6.220;2023-05-07T13:20:57;5.93;;;4.50;;
74904;SDS011;63465;50.862;6.220;2023-05-07T13:23:23;8.57;;;4.70;;
74904;SDS011;63465;50.862;6.220;2023-05-07T13:25:48;5.60;;;4.33;;
74904;SDS011;63465;50.862;6.220;2023-05-07T13:28:15;6.37;;;4.13;;
74904;SDS011;63465;50.862;6.220;2023-05-07T13:30:41;6.57;;;4.50;;
74904;SDS011;63465;50.862;6.220;2023-05-07T13:33:06;8.47;;;5.30;;
74904;SDS011;63465;50.862;6.220;2023-05-07T13:35:32;7.90;;;5.20;;
74904;SDS011;63465;50.862;6.220;2023-05-07T13:37:57;8.10;;;5.07;;
74904;SDS011;63465;50.862;6.220;2023-05-07T13:40:23;6.00;;;4.20;;
74904;SDS011;63465;50.862;6.220;2023-05-07T13:42:49;4.87;;;4.43;;
74904;SDS011;63465;50.862;6.220;2023-05-07T13:45:15;8.47;;;4.80;;
74904;SDS011;63465;50.862;6.220;2023-05-07T13:47:41;4.70;;;4.30;;
74904;SDS011;63465;50.862;6.220;2023-05-07T13:50:07;5.13;;;4.37;;
74904;SDS011;63465;50.862;6.220;2023-05-07T13:52:34;5.03;;;4.53;;
74904;SDS011;63465;50.862;6.220;2023-05-07T13:54:59;6.17;;;4.33;;
74904;SDS011;63465;50.862;6.220;2023-05-07T13:57:25;5.20;;;4.70;;
74904;SDS011;63465;50.862;6.220;2023-05-07T13:59:50;6.10;;;5.13;;
74904;SDS011;63465;50.862;6.220;2023-05-07T14:02:15;5.67;;;4.80;;
74904;SDS011;63465;50.862;6.220;2023-05-07T14:04:40;8.50;;;4.43;;
74904;SDS011;63465;50.862;6.220;2023-05-07T14:07:06;4.80;;;4.40;;
74904;SDS011;63465;50.862;6.220;2023-05-07T14:09:31;4.20;;;3.80;;
74904;SDS011;63465;50.862;6.220;2023-05-07T14:11:58;4.23;;;3.83;;
74904;SDS011;63465;50.862;6.220;2023-05-07T14:14:23;6.60;;;3.30;;
74904;SDS011;63465;50.862;6.220;2023-05-07T14:16:49;3.60;;;3.10;;
74904;SDS011;63465;50.862;6.220;2023-05-07T14:19:14;3.70;;;3.40;;
74904;SDS011;63465;50.862;6.220;2023-05-07T14:21:40;4.10;;;3.53;;
74904;SDS011;63465;50.862;6.220;2023-05-07T14:24:06;3.90;;;3.60;;
74904;SDS011;63465;50.862;6.220;2023-05-07T14:26:33;3.53;;;3.23;;
74904;SDS011;63465;50.862;6.220;2023-05-07T14:28:58;3.57;;;3.37;;
74904;SDS011;63465;50.862;6.220;2023-05-07T14:31:24;3.70;;;3.40;;
74904;SDS011;63465;50.862;6.220;2023-05-07T14:33:49;3.27;;;3.07;;
74904;SDS011;63465;50.862;6.220;2023-05-07T14:36:15;3.40;;;3.10;;
74904;SDS011;63465;50.862;6.220;2023-05-07T14:38:42;3.20;;;3.00;;
74904;SDS011;63465;50.862;6.220;2023-05-07T14:41:07;3.10;;;3.00;;
74904;SDS011;63465;50.862;6.220;2023-05-07T14:43:32;4.30;;;3.80;;
74904;SDS011;63465;50.862;6.220;2023-05-07T14:45:58;4.13;;;3.83;;
74904;SDS011;63465;50.862;6.220;2023-05-07T14:48:23;4.50;;;4.20;;
74904;SDS011;63465;50.862;6.220;2023-05-07T14:50:48;5.80;;;4.60;;
74904;SDS011;63465;50.862;6.220;2023-05-07T14:53:13;12.70;;;4.20;;
74904;SDS011;63465;50.862;6.220;2023-05-07T14:55:39;4.10;;;3.70;;
74904;SDS011;63465;50.862;6.220;2023-05-07T14:58:04;4.40;;;4.00;;
74904;SDS011;63465;50.862;6.220;2023-05-07T15:00:30;4.80;;;4.40;;
74904;SDS011;63465;50.862;6.220;2023-05-07T15:03:00;4.57;;;4.17;;